Time;durP1;ratioP1;P1;durP2;ratioP2;P2;SDS_P1;SDS_P2;PMS_P1;PMS_P2;Temp;Humidity;BMP_temperature;BMP_pressure;BME280_temperature;BME280_humidity;BME280_pressure;Samples;Min_cycle;Max_cycle;Signal;HPM_P1;HPM_P2
2022/04/26 03:37:32;;;;;;;8.93;3.17;;;;;;;15.41;70.67;97868.13;6301392;22;20193;-57
2022/04/26 03:39:58;;;;;;;9.10;3.15;;;;;;;15.36;71.96;97875.56;6294005;22;20187;-56
2022/04/26 03:42:24;;;;;;;8.02;2.83;;;;;;;15.41;71.17;97871.56;6260722;22;20160;-56
2022/04/26 03:44:49;;;;;;;8.35;3.35;;;;;;;15.45;70.97;97882.53;6290860;22;20485;-57
2022/04/26 03:47:15;;;;;;;12.13;2.95;;;;;;;15.47;71.32;97891.00;6301463;22;20154;-57
2022/04/26 03:49:40;;;;;;;15.35;3.60;;;;;;;15.48;70.46;97888.25;6301373;22;20144;-56
2022/04/26 03:52:06;;;;;;;16.60;3.63;;;;;;;15.45;69.80;97898.16;6301481;22;20212;-57
2022/04/26 03:54:31;;;;;;;8.65;3.28;;;;;;;15.52;68.95;97894.00;6301625;22;20159;-56
2022/04/26 03:56:58;;;;;;;12.20;4.10;;;;;;;15.47;69.12;97897.06;6301091;22;20160;-56
2022/04/26 03:59:23;;;;;;;14.77;3.45;;;;;;;15.52;69.23;97909.63;6301782;22;20195;-56
2022/04/26 04:01:49;;;;;;;8.93;3.60;;;;;;;15.54;68.59;97907.69;6289622;22;20156;-56
2022/04/26 04:04:15;;;;;;;13.05;3.80;;;;;;;15.47;70.45;97906.66;6288553;22;20156;-57
2022/04/26 04:06:40;;;;;;;13.07;3.47;;;;;;;15.42;70.73;97907.09;6294603;22;20234;-56
2022/04/26 04:09:06;;;;;;;18.45;3.72;;;;;;;15.52;69.27;97909.63;6301535;22;20581;-57
2022/04/26 04:11:31;;;;;;;10.65;3.08;;;;;;;15.44;68.92;97910.38;6301384;22;20156;-56
2022/04/26 04:13:57;;;;;;;10.30;3.33;;;;;;;15.53;68.79;97919.09;6301321;22;20158;-56
2022/04/26 04:16:22;;;;;;;11.50;3.22;;;;;;;15.50;68.94;97915.00;6299647;22;20524;-57
2022/04/26 04:21:33;;;;;;;10.25;3.53;;;;;;;15.52;69.83;97925.28;6297386;22;20446;-57
2022/04/26 04:23:59;;;;;;;9.52;3.40;;;;;;;15.57;69.34;97923.06;6287857;22;20661;-57
2022/04/26 04:26:24;;;;;;;10.63;3.15;;;;;;;15.68;68.72;97930.66;6290260;22;20691;-57
2022/04/26 04:28:50;;;;;;;10.82;3.75;;;;;;;15.72;69.05;97932.00;6299039;22;20151;-57
2022/04/26 04:31:15;;;;;;;11.52;2.88;;;;;;;15.66;68.96;97938.63;6301032;22;20489;-57
2022/04/26 04:33:43;;;;;;;11.70;3.22;;;;;;;15.66;68.46;97925.59;6301183;22;20155;-57
2022/04/26 04:36:08;;;;;;;14.88;3.45;;;;;;;15.59;68.94;97937.59;6300962;22;20648;-57
2022/04/26 04:38:34;;;;;;;13.20;2.80;;;;;;;15.53;69.72;97947.78;6301056;22;20154;-57
2022/04/26 04:40:59;;;;;;;8.77;2.90;;;;;;;15.54;69.77;97933.75;6300992;22;20174;-56
2022/04/26 04:43:25;;;;;;;13.68;3.70;;;;;;;15.46;69.93;97941.50;6292356;22;20182;-57
2022/04/26 04:45:51;;;;;;;8.50;2.75;;;;;;;15.60;69.36;97939.22;6287929;22;20265;-56
2022/04/26 04:48:17;;;;;;;5.95;3.35;;;;;;;15.60;69.26;97946.22;6291424;22;20197;-57
2022/04/26 04:50:43;;;;;;;9.07;3.25;;;;;;;15.52;69.64;97946.94;6300605;22;20152;-56
2022/04/26 04:53:09;;;;;;;9.63;3.80;;;;;;;15.60;69.40;97938.41;6301148;22;20147;-56
2022/04/26 04:55:34;;;;;;;13.73;3.72;;;;;;;15.57;69.23;97938.69;6272409;22;20190;-57
2022/04/26 04:58:00;;;;;;;7.13;2.67;;;;;;;15.69;69.04;97942.72;6300135;22;20231;-57
2022/04/26 05:00:26;;;;;;;13.10;3.20;;;;;;;15.79;68.57;97938.25;6301012;22;20180;-56
2022/04/26 05:02:51;;;;;;;15.55;3.83;;;;;;;15.92;67.84;97936.91;6273516;22;20179;-57
2022/04/26 05:05:16;;;;;;;16.92;3.95;;;;;;;15.96;67.02;97924.38;6287867;22;20189;-57
2022/04/26 05:07:42;;;;;;;9.95;2.80;;;;;;;16.06;67.14;97946.84;6288361;22;20466;-56
2022/04/26 05:10:08;;;;;;;15.77;3.35;;;;;;;16.13;66.90;97947.03;6294835;22;20494;-56
2022/04/26 05:12:34;;;;;;;9.65;3.28;;;;;;;16.20;67.07;97948.09;6300746;22;20148;-57
2022/04/26 05:15:00;;;;;;;10.60;3.35;;;;;;;16.31;66.79;97953.91;6300727;22;20167;-57
2022/04/26 05:17:29;;;;;;;14.85;3.65;;;;;;;16.39;66.52;97947.94;6299289;22;20178;-57
2022/04/26 05:19:55;;;;;;;10.25;3.63;;;;;;;16.50;66.34;97950.31;6300417;22;20229;-57
2022/04/26 05:22:22;;;;;;;13.13;3.13;;;;;;;16.64;65.36;97958.41;6300656;22;20597;-57
2022/04/26 05:24:53;;;;;;;15.15;3.40;;;;;;;16.77;65.38;97965.81;6297059;22;20158;-56
2022/04/26 05:27:20;;;;;;;8.60;3.03;;;;;;;16.79;65.17;97964.69;6286662;22;20597;-57
2022/04/26 05:29:46;;;;;;;9.75;3.03;;;;;;;16.70;64.97;97972.66;6289402;22;20190;-57
2022/04/26 05:32:11;;;;;;;13.25;4.18;;;;;;;16.72;65.38;97971.53;6299231;22;20152;-57
2022/04/26 05:34:36;;;;;;;14.80;3.95;;;;;;;16.84;64.75;97972.09;6300576;22;20152;-57
2022/04/26 05:37:02;;;;;;;17.27;2.90;;;;;;;16.91;64.78;97973.13;6300162;22;20170;-57
2022/04/26 05:39:27;;;;;;;13.38;2.92;;;;;;;16.96;64.86;97982.13;6300365;22;20171;-57
2022/04/26 05:41:53;;;;;;;9.32;3.45;;;;;;;16.96;64.50;97978.69;6300515;22;20167;-57
2022/04/26 05:44:18;;;;;;;13.18;3.25;;;;;;;17.06;64.92;97980.22;6273148;22;20630;-57
2022/04/26 05:46:44;;;;;;;12.65;3.33;;;;;;;17.23;65.12;97981.94;6290919;22;20640;-57
2022/04/26 05:49:09;;;;;;;14.77;3.65;;;;;;;17.39;64.61;97986.44;6287572;22;20155;-57
2022/04/26 05:51:34;;;;;;;15.73;3.85;;;;;;;17.44;64.73;97989.41;6291755;22;20230;-57
2022/04/26 05:54:00;;;;;;;16.48;3.47;;;;;;;17.51;64.81;97985.19;6300291;22;20497;-57
2022/04/26 05:56:25;;;;;;;10.95;3.70;;;;;;;17.52;64.28;97992.06;6272975;22;20178;-57
2022/04/26 05:58:51;;;;;;;13.88;3.72;;;;;;;17.52;63.73;97985.03;6300056;22;20179;-57
2022/04/26 06:01:16;;;;;;;10.73;3.60;;;;;;;17.39;64.44;97978.59;6300428;22;20178;-56
2022/04/26 06:03:42;;;;;;;13.95;3.40;;;;;;;17.50;63.92;97980.94;6299918;22;20218;-57
2022/04/26 06:06:07;;;;;;;11.48;3.25;;;;;;;17.54;64.04;97979.66;6300453;22;20151;-57
2022/04/26 06:08:33;;;;;;;11.25;3.17;;;;;;;17.53;64.17;97978.81;6286354;22;20152;-57
2022/04/26 06:10:58;;;;;;;13.75;3.88;;;;;;;17.62;63.80;97974.44;6288442;22;20277;-57
2022/04/26 06:13:24;;;;;;;11.02;3.47;;;;;;;17.78;63.52;97982.34;6295064;22;20588;-57
2022/04/26 06:15:49;;;;;;;14.20;3.85;;;;;;;17.87;62.96;97986.59;6300130;22;20243;-56
2022/04/26 06:18:14;;;;;;;23.60;3.78;;;;;;;17.95;62.82;97979.56;6300299;22;20205;-57
2022/04/26 06:20:40;;;;;;;14.85;3.03;;;;;;;17.97;62.74;97977.63;6299827;22;20246;-57
2022/04/26 06:23:05;;;;;;;12.23;3.47;;;;;;;18.13;62.41;97976.81;6300286;22;20154;-56
2022/04/26 06:25:36;;;;;;;17.67;3.17;;;;;;;18.24;62.11;97979.94;6300240;22;20157;-57
2022/04/26 06:28:03;;;;;;;12.98;3.65;;;;;;;18.47;61.37;97967.84;6295775;22;20161;-57
2022/04/26 06:30:29;;;;;;;12.15;3.83;;;;;;;18.60;60.62;97964.75;6286851;22;20147;-57
2022/04/26 06:32:54;;;;;;;18.48;4.05;;;;;;;18.72;60.81;97968.66;6289091;22;20621;-57
2022/04/26 06:35:19;;;;;;;12.95;3.45;;;;;;;18.83;60.33;97970.94;6298600;22;20147;-57
2022/04/26 06:37:45;;;;;;;11.52;3.35;;;;;;;18.96;59.94;97973.84;6300414;22;20158;-57
2022/04/26 06:40:10;;;;;;;14.95;3.80;;;;;;;18.82;60.24;97977.97;6272805;22;20646;-57
2022/04/26 06:42:36;;;;;;;17.30;3.42;;;;;;;18.87;60.16;97977.47;6300094;22;20155;-58
2022/04/26 06:45:01;;;;;;;7.85;2.90;;;;;;;19.02;59.66;97976.63;6300029;22;20147;-57
2022/04/26 06:47:27;;;;;;;9.38;3.10;;;;;;;19.20;58.99;97979.84;6300035;22;20165;-57
2022/04/26 06:49:52;;;;;;;12.65;3.58;;;;;;;19.25;58.89;97966.25;6290367;22;20178;-57
2022/04/26 06:52:18;;;;;;;9.90;3.22;;;;;;;19.29;58.78;97978.03;6287470;22;20481;-57
2022/04/26 06:54:43;;;;;;;9.40;2.67;;;;;;;19.23;59.34;97976.09;6291319;22;20154;-57
2022/04/26 06:57:09;;;;;;;12.35;3.30;;;;;;;19.28;59.08;97982.47;6299883;22;20156;-57
2022/04/26 06:59:34;;;;;;;11.18;3.08;;;;;;;19.44;61.95;97976.34;6300121;22;20193;-57
2022/04/26 07:01:59;;;;;;;10.88;2.47;;;;;;;19.60;62.72;97987.59;6299834;22;20147;-57
2022/04/26 07:04:25;;;;;;;7.40;2.85;;;;;;;19.54;63.66;97982.19;6272654;22;20155;-57
2022/04/26 07:06:50;;;;;;;5.15;2.22;;;;;;;19.56;63.52;97977.59;6299768;22;20151;-56
2022/04/26 07:09:16;;;;;;;8.13;2.50;;;;;;;19.80;62.27;97977.47;6299711;22;20142;-57
2022/04/26 07:11:42;;;;;;;16.27;2.92;;;;;;;20.03;62.25;97978.28;6286242;22;20466;-57
2022/04/26 07:14:10;;;;;;;9.88;2.58;;;;;;;20.23;62.49;97984.78;6288566;22;20174;-57
2022/04/26 07:16:35;;;;;;;5.88;3.00;;;;;;;20.41;62.65;97977.41;6296122;22;20197;-57
2022/04/26 07:19:01;;;;;;;8.32;2.95;;;;;;;20.63;62.74;97981.81;6274264;22;20199;-57
2022/04/26 07:21:26;;;;;;;8.43;3.10;;;;;;;20.82;62.55;97982.13;6301812;22;20159;-57
2022/04/26 07:23:52;;;;;;;12.60;2.63;;;;;;;20.94;61.79;97983.38;6301825;22;20501;-57
2022/04/26 07:26:17;;;;;;;8.57;2.60;;;;;;;21.00;61.24;97984.44;6301837;22;20173;-57
2022/04/26 07:28:42;;;;;;;12.15;3.55;;;;;;;20.88;61.77;97988.47;6274126;22;20261;-57
2022/04/26 07:31:08;;;;;;;7.45;2.47;;;;;;;21.01;61.84;97986.06;6297715;22;20148;-57
2022/04/26 07:36:21;;;;;;;15.95;3.20;;;;;;;20.99;62.05;97982.81;6291150;22;20137;-57
2022/04/26 07:38:47;;;;;;;11.00;3.85;;;;;;;21.10;59.99;97980.53;6301459;22;20240;-57
2022/04/26 07:41:13;;;;;;;11.55;3.53;;;;;;;21.23;58.91;97987.81;6302121;22;20147;-57
2022/04/26 07:43:38;;;;;;;10.18;2.97;;;;;;;21.26;59.51;97979.53;6301790;22;20189;-57
2022/04/26 07:46:04;;;;;;;9.70;2.53;;;;;;;21.36;58.81;97982.72;6301645;22;20474;-57
2022/04/26 07:48:30;;;;;;;15.05;4.05;;;;;;;21.56;59.27;97986.44;6301785;22;20158;-57
2022/04/26 07:50:55;;;;;;;15.48;3.55;;;;;;;21.62;59.97;97980.44;6302046;22;20143;-57
2022/04/26 07:53:21;;;;;;;15.55;3.60;;;;;;;21.73;60.10;97991.31;6290544;22;20643;-57
2022/04/26 07:55:47;;;;;;;13.55;3.20;;;;;;;21.79;59.92;97993.22;6288909;22;20153;-57
2022/04/26 07:58:12;;;;;;;11.45;3.63;;;;;;;21.68;59.45;97985.00;6294254;22;20155;-57
2022/04/26 08:00:38;;;;;;;11.45;3.83;;;;;;;21.79;59.51;97987.16;6301435;22;20175;-57
2022/04/26 08:03:05;;;;;;;12.48;3.22;;;;;;;21.88;58.88;97988.66;6301425;22;20232;-57
2022/04/26 08:05:30;;;;;;;13.73;3.60;;;;;;;21.83;59.08;97983.13;6301326;22;20197;-56
2022/04/26 08:07:56;;;;;;;19.13;4.05;;;;;;;21.93;59.17;97987.13;6301221;22;20147;-57
2022/04/26 08:10:21;;;;;;;10.45;3.50;;;;;;;22.03;58.75;97978.91;6301593;22;20148;-57
2022/04/26 08:12:47;;;;;;;10.05;3.42;;;;;;;22.13;57.70;97985.50;6300410;22;20171;-57
2022/04/26 08:15:13;;;;;;;13.93;3.70;;;;;;;22.16;57.74;97979.88;6259375;22;20191;-57
2022/04/26 08:17:40;;;;;;;9.07;3.22;;;;;;;21.91;57.92;97965.38;6288995;22;20592;-57
2022/04/26 08:20:10;;;;;;;8.60;3.08;;;;;;;21.91;57.74;97975.13;6297737;22;20202;-57
2022/04/26 08:22:35;;;;;;;9.18;3.47;;;;;;;21.96;56.48;97975.38;6301407;22;20328;-57
2022/04/26 08:27:45;;;;;;;11.43;2.85;;;;;;;21.87;54.51;97974.69;6300864;22;20166;-57
2022/04/26 08:30:11;;;;;;;9.43;2.60;;;;;;;21.83;52.09;97975.22;6301395;22;20570;-57
2022/04/26 08:32:41;;;;;;;8.13;3.00;;;;;;;22.04;51.71;97970.00;6301246;22;20151;-57
2022/04/26 08:35:08;;;;;;;4.53;2.22;;;;;;;22.11;49.77;97981.41;6264392;22;20181;-57
2022/04/26 08:37:35;;;;;;;9.38;1.90;;;;;;;21.94;49.10;97970.31;6288326;22;20693;-57
2022/04/26 08:40:01;;;;;;;4.63;2.35;;;;;;;22.06;49.39;97976.72;6291741;22;20198;-57
2022/04/26 08:42:37;;;;;;;6.85;2.20;;;;;;;22.22;47.58;97980.91;6300949;22;20153;-57
2022/04/26 08:45:05;;;;;;;7.53;2.17;;;;;;;22.26;47.68;97980.34;6301278;22;20575;-58
2022/04/26 08:52:58;;;;;;;5.88;1.70;;;;;;;22.46;47.29;97980.56;6300863;22;20138;-57
2022/04/26 08:55:24;;;;;;;2.95;1.75;;;;;;;22.63;45.63;97969.56;6297106;22;20155;-58
2022/04/26 08:57:51;;;;;;;12.65;1.92;;;;;;;22.65;46.49;97967.53;6286784;22;20654;-57
2022/04/26 09:00:16;;;;;;;5.35;1.60;;;;;;;22.80;46.05;97962.19;6289539;22;20258;-57
2022/04/26 09:02:42;;;;;;;6.60;2.15;;;;;;;22.95;47.07;97960.25;6299029;22;20167;-57
2022/04/26 09:05:14;;;;;;;3.83;1.50;;;;;;;22.95;45.06;97962.91;6301050;22;20147;-57
2022/04/26 09:07:40;;;;;;;9.52;1.95;;;;;;;22.91;45.62;97964.28;6300797;22;20148;-57
2022/04/26 09:10:11;;;;;;;9.05;2.10;;;;;;;23.00;46.41;97973.66;6300543;22;20181;-57
2022/04/26 09:13:04;;;;;;;2.72;1.60;;;;;;;23.08;45.44;97955.84;6300747;22;20267;-57
2022/04/26 09:15:45;;;;;;;7.00;1.73;;;;;;;23.19;45.80;97957.19;6300432;22;20215;-57
2022/04/26 09:18:17;;;;;;;5.32;2.45;;;;;;;23.27;45.27;97954.38;6286613;22;20158;-57
2022/04/26 09:20:44;;;;;;;4.90;1.90;;;;;;;23.46;45.65;97951.00;6288921;22;20190;-57
2022/04/26 09:23:17;;;;;;;7.13;1.70;;;;;;;23.59;45.89;97943.97;6296261;22;20177;-58
2022/04/26 09:25:43;;;;;;;5.32;1.88;;;;;;;23.59;44.79;97951.09;6300384;22;20150;-57
2022/04/26 09:28:08;;;;;;;7.30;2.08;;;;;;;23.63;43.54;97942.56;6300713;22;20147;-57
2022/04/26 09:30:34;;;;;;;8.13;2.05;;;;;;;23.67;43.79;97940.34;6300498;22;20461;-57
2022/04/26 09:33:00;;;;;;;6.57;1.80;;;;;;;23.67;43.94;97946.44;6273323;22;20596;-57
2022/04/26 09:35:32;;;;;;;7.50;1.90;;;;;;;23.75;44.66;97946.25;6301080;22;20143;-57
2022/04/26 09:38:00;;;;;;;8.43;1.80;;;;;;;23.86;43.40;97935.09;6293441;22;20248;-57
2022/04/26 09:40:32;;;;;;;13.65;2.20;;;;;;;23.87;43.70;97926.16;6286962;22;20174;-57
2022/04/26 09:42:58;;;;;;;9.27;1.92;;;;;;;23.85;43.04;97931.63;6262751;22;20185;-57
2022/04/26 09:45:25;;;;;;;5.05;1.88;;;;;;;23.93;43.47;97930.69;6300584;22;20147;-57
2022/04/26 09:47:57;;;;;;;8.38;1.60;;;;;;;23.96;41.86;97932.91;6300601;22;20173;-57
2022/04/26 09:50:24;;;;;;;3.92;1.40;;;;;;;24.03;41.96;97942.47;6300339;22;20138;-58
2022/04/26 09:52:50;;;;;;;4.78;1.45;;;;;;;24.16;41.60;97933.78;6300615;22;20171;-57
2022/04/26 09:55:15;;;;;;;9.65;1.63;;;;;;;24.13;40.37;97931.50;6300420;22;20204;-57
2022/04/26 09:57:43;;;;;;;4.32;1.58;;;;;;;24.25;41.57;97930.72;6300430;22;20154;-57
2022/04/26 10:00:10;;;;;;;4.88;1.52;;;;;;;24.43;41.27;97922.19;6286748;22;20198;-57
2022/04/26 10:02:38;;;;;;;5.32;1.20;;;;;;;24.54;41.26;97919.75;6288140;22;20151;-58
2022/04/26 10:05:07;;;;;;;3.05;1.58;;;;;;;24.71;40.80;97931.56;6295719;22;20594;-57
2022/04/26 10:07:36;;;;;;;2.75;1.20;;;;;;;24.58;39.38;97930.75;6300224;22;20169;-57
2022/04/26 10:10:04;;;;;;;5.28;1.55;;;;;;;24.27;39.58;97931.31;6300526;22;20179;-58
2022/04/26 10:12:31;;;;;;;4.10;1.58;;;;;;;24.21;39.85;97931.34;6300718;22;20151;-58
2022/04/26 10:14:58;;;;;;;7.90;1.73;;;;;;;24.25;39.53;97936.00;6300081;22;20219;-57
2022/04/26 10:17:24;;;;;;;4.00;1.60;;;;;;;24.09;39.77;97923.19;6300187;22;20167;-57
2022/04/26 10:19:49;;;;;;;4.25;1.60;;;;;;;24.13;39.27;97920.16;6293826;22;20194;-57
2022/04/26 10:22:17;;;;;;;3.63;1.40;;;;;;;24.10;39.87;97922.16;6286892;22;20147;-57
2022/04/26 10:25:07;;;;;;;6.82;2.00;;;;;;;23.83;39.58;97930.22;6289202;22;20551;-58
2022/04/26 10:27:33;;;;;;;4.75;1.60;;;;;;;23.77;39.80;97937.13;6300525;22;20151;-58
2022/04/26 10:29:58;;;;;;;3.00;1.33;;;;;;;23.47;40.38;97934.97;6300248;22;20721;-57
2022/04/26 10:32:34;;;;;;;5.93;1.50;;;;;;;23.39;41.57;97942.25;6300118;22;20143;-57
2022/04/26 10:35:26;;;;;;;4.45;1.73;;;;;;;23.38;41.74;97949.38;6300334;22;20157;-57
2022/04/26 10:38:16;;;;;;;1.58;1.30;;;;;;;23.10;42.26;97955.66;6292721;22;20237;-57
2022/04/26 10:41:10;;;;;;;7.13;1.30;;;;;;;23.01;43.05;97970.84;6295657;22;20213;-57
2022/04/26 10:43:36;;;;;;;6.55;1.35;;;;;;;22.80;42.91;97968.28;6287053;22;20612;-57
2022/04/26 10:46:15;;;;;;;1.60;1.30;;;;;;;22.68;43.77;97963.72;6289798;22;20193;-57
2022/04/26 10:48:41;;;;;;;5.65;1.38;;;;;;;22.72;45.26;97967.59;6300664;22;20162;-57
2022/04/26 10:51:35;;;;;;;3.13;1.60;;;;;;;22.53;49.30;97960.34;6274449;22;20216;-57
2022/04/26 10:54:02;;;;;;;5.65;1.50;;;;;;;22.46;52.94;97949.75;6301974;22;20154;-58
2022/04/26 10:56:29;;;;;;;7.32;1.98;;;;;;;21.95;66.04;97947.38;6302254;22;20181;-57
2022/04/26 10:58:55;;;;;;;10.18;1.90;;;;;;;20.87;76.86;97950.81;6302016;22;20226;-58
2022/04/26 11:01:24;;;;;;;6.95;2.58;;;;;;;20.07;79.48;97954.19;6272354;22;21011;-57
2022/04/26 11:03:55;;;;;;;7.10;1.85;;;;;;;20.05;81.01;97948.25;6288129;22;20147;-57
2022/04/26 11:06:41;;;;;;;5.88;1.90;;;;;;;19.87;88.21;97937.22;6290318;22;20475;-57
2022/04/26 11:09:07;;;;;;;4.60;2.22;;;;;;;19.82;92.84;97933.47;6300861;22;20561;-57
2022/04/26 11:11:52;;;;;;;8.82;1.95;;;;;;;19.70;87.83;97919.91;6301810;22;20154;-57
2022/04/26 11:14:19;;;;;;;6.72;1.88;;;;;;;19.61;85.96;97920.97;6301746;22;20197;-57
2022/04/26 11:16:59;;;;;;;5.85;1.83;;;;;;;19.35;82.00;97930.94;6274159;22;20570;-57
2022/04/26 11:19:38;;;;;;;7.47;1.67;;;;;;;19.61;79.42;97930.66;6302362;22;20216;-57
2022/04/26 11:22:13;;;;;;;4.43;1.60;;;;;;;19.80;78.25;97945.94;6301250;22;20587;-57
2022/04/26 11:30:10;;;;;;;7.97;1.90;;;;;;;20.02;81.88;97921.50;6300828;22;20220;-57
2022/04/26 11:32:44;;;;;;;3.38;2.10;;;;;;;19.92;83.52;97907.78;6301666;22;20159;-57
2022/04/26 11:35:14;;;;;;;5.95;2.17;;;;;;;19.78;83.30;97906.75;6301737;22;20163;-57
2022/04/26 11:37:47;;;;;;;3.35;2.20;;;;;;;19.64;81.14;97907.50;6301717;22;20147;-57
2022/04/26 11:40:27;;;;;;;5.53;1.85;;;;;;;20.08;67.86;97912.97;6301567;22;20163;-56
2022/04/26 11:42:54;;;;;;;4.10;1.92;;;;;;;20.72;64.42;97917.63;6301600;22;20631;-57
2022/04/26 11:45:21;;;;;;;4.13;1.55;;;;;;;21.28;60.07;97911.75;6287724;22;20601;-57
2022/04/26 11:47:49;;;;;;;4.30;1.58;;;;;;;21.85;60.80;97912.66;6288983;22;20552;-57
2022/04/26 11:50:20;;;;;;;5.60;1.52;;;;;;;22.32;62.09;97902.34;6296763;22;20210;-57
2022/04/26 11:52:48;;;;;;;5.00;1.92;;;;;;;22.76;61.62;97903.72;6301559;22;20154;-57
2022/04/26 11:55:23;;;;;;;4.47;1.65;;;;;;;23.16;56.41;97899.47;6301377;22;20664;-57
2022/04/26 11:57:49;;;;;;;5.03;1.80;;;;;;;23.37;54.09;97892.25;6301503;22;20570;-57
2022/04/26 12:00:16;;;;;;;5.95;1.83;;;;;;;23.61;48.28;97880.38;6300481;22;20171;-57
2022/04/26 12:02:44;;;;;;;6.03;1.67;;;;;;;23.91;48.31;97884.31;6301914;22;20144;-57
2022/04/26 12:05:10;;;;;;;3.63;2.00;;;;;;;24.23;46.25;97875.63;6294510;22;20234;-57
2022/04/26 12:07:36;;;;;;;7.47;2.22;;;;;;;24.34;45.68;97887.22;6288616;22;20230;-57
2022/04/26 12:10:02;;;;;;;4.60;1.80;;;;;;;24.46;44.71;97893.50;6290738;22;20274;-58
2022/04/26 12:12:29;;;;;;;6.40;2.00;;;;;;;24.68;42.19;97873.75;6301445;22;20231;-57
2022/04/26 12:14:55;;;;;;;3.80;1.60;;;;;;;24.52;44.33;97862.75;6301586;22;20163;-57
2022/04/26 12:17:29;;;;;;;5.75;2.13;;;;;;;24.66;42.29;97864.41;6301517;22;20194;-57
2022/04/26 12:19:55;;;;;;;4.07;1.88;;;;;;;24.77;41.15;97854.00;6301045;22;20247;-57
2022/04/26 12:22:25;;;;;;;3.33;1.65;;;;;;;24.66;39.69;97864.41;6301614;22;20151;-57
2022/04/26 12:24:52;;;;;;;3.97;1.60;;;;;;;24.40;40.39;97872.34;6301382;22;20144;-57
2022/04/26 12:27:26;;;;;;;6.10;1.60;;;;;;;23.94;40.82;97876.00;6260908;22;20501;-57
2022/04/26 12:29:52;;;;;;;2.83;1.15;;;;;;;23.48;41.56;97873.22;6289203;22;20673;-57
2022/04/26 12:32:19;;;;;;;4.28;1.20;;;;;;;23.36;42.48;97863.44;6296366;22;20169;-57
2022/04/26 12:34:48;;;;;;;3.72;1.50;;;;;;;23.39;42.47;97863.03;6301468;22;20155;-57
2022/04/26 12:37:21;;;;;;;4.07;1.27;;;;;;;23.46;42.07;97858.56;6274193;22;20181;-57
2022/04/26 12:39:52;;;;;;;4.10;1.23;;;;;;;24.00;42.31;97857.50;6301666;22;20167;-57
2022/04/26 12:42:27;;;;;;;3.58;1.50;;;;;;;24.61;41.13;97846.50;6301309;22;20143;-57
2022/04/26 12:45:02;;;;;;;1.10;1.10;;;;;;;25.15;41.20;97841.66;6301041;22;20617;-57
2022/04/26 12:50:36;;;;;;;3.55;1.52;;;;;;;25.17;39.05;97842.25;6288135;22;20189;-57
2022/04/26 12:53:04;;;;;;;1.25;1.00;;;;;;;25.25;38.99;97857.13;6294276;22;20132;-57
2022/04/26 12:55:36;;;;;;;2.28;1.40;;;;;;;25.16;39.39;97856.53;6301095;22;20236;-57
2022/04/26 12:58:06;;;;;;;4.85;1.25;;;;;;;25.12;39.58;97854.47;6300984;22;20128;-57
2022/04/26 13:00:33;;;;;;;2.63;1.30;;;;;;;25.37;40.30;97850.94;6300811;22;20213;-57
2022/04/26 13:03:01;;;;;;;2.33;1.20;;;;;;;25.48;40.21;97854.78;6300916;22;20151;-57
2022/04/26 13:05:29;;;;;;;2.88;1.35;;;;;;;25.64;40.14;97847.13;6300683;22;20158;-57
2022/04/26 13:07:55;;;;;;;3.65;1.75;;;;;;;25.93;39.40;97853.69;6296574;22;20208;-57
2022/04/26 13:10:21;;;;;;;1.92;1.25;;;;;;;26.16;38.50;97845.97;6287139;22;20147;-57
2022/04/26 13:12:47;;;;;;;3.17;1.90;;;;;;;26.40;39.22;97843.31;6289338;22;20736;-57
2022/04/26 13:15:15;;;;;;;5.60;1.52;;;;;;;26.42;38.11;97854.50;6298839;22;20252;-57
2022/04/26 13:17:42;;;;;;;1.70;1.27;;;;;;;26.22;38.21;97840.63;6300737;22;20635;-57
2022/04/26 13:20:10;;;;;;;2.45;1.50;;;;;;;26.31;38.78;97841.97;6300321;22;20175;-57
2022/04/26 13:22:36;;;;;;;3.00;1.60;;;;;;;26.76;38.00;97824.81;6300485;22;20158;-57
2022/04/26 13:25:03;;;;;;;3.55;1.40;;;;;;;26.66;36.19;97840.44;6273151;22;20162;-57
2022/04/26 13:27:32;;;;;;;5.40;1.83;;;;;;;26.93;35.85;97838.31;6300724;22;20174;-57
2022/04/26 13:29:59;;;;;;;2.67;1.30;;;;;;;26.61;36.92;97837.66;6289755;22;20147;-58
2022/04/26 13:32:25;;;;;;;3.00;1.20;;;;;;;26.51;36.61;97847.09;6287654;22;20177;-57
2022/04/26 13:34:52;;;;;;;2.00;1.73;;;;;;;26.21;37.33;97841.66;6292941;22;20143;-57
2022/04/26 13:37:19;;;;;;;3.70;1.40;;;;;;;25.80;38.71;97845.81;6300547;22;20671;-57
2022/04/26 13:39:45;;;;;;;4.05;1.27;;;;;;;25.30;40.71;97838.78;6300266;22;20598;-57
2022/04/26 13:42:15;;;;;;;3.13;1.58;;;;;;;24.91;42.09;97841.53;6300495;22;20216;-57
2022/04/26 13:44:41;;;;;;;3.50;1.77;;;;;;;24.95;42.68;97853.34;6300711;22;20179;-58
2022/04/26 13:47:08;;;;;;;2.35;1.92;;;;;;;24.78;43.16;97852.97;6300043;22;20151;-57
2022/04/26 13:49:34;;;;;;;4.38;1.70;;;;;;;24.54;44.05;97850.97;6299039;22;20210;-57
2022/04/26 13:52:00;;;;;;;2.58;2.03;;;;;;;24.60;44.54;97855.47;6286265;22;20147;-57
2022/04/26 13:54:29;;;;;;;4.32;1.73;;;;;;;24.32;48.45;97860.13;6289182;22;20147;-57
2022/04/26 13:56:55;;;;;;;2.83;1.55;;;;;;;23.90;52.93;97866.84;6297185;22;20174;-57
2022/04/26 13:59:22;;;;;;;2.67;1.92;;;;;;;23.29;55.82;97859.94;6300243;22;20171;-57
2022/04/26 14:01:52;;;;;;;2.60;1.63;;;;;;;22.97;57.35;97850.03;6300063;22;20161;-57
2022/04/26 14:04:18;;;;;;;3.22;1.83;;;;;;;22.46;60.78;97838.19;6300299;22;20593;-58
2022/04/26 14:06:44;;;;;;;7.13;2.17;;;;;;;22.22;64.42;97833.31;6299986;22;20147;-58
2022/04/26 14:09:09;;;;;;;3.05;1.95;;;;;;;21.99;65.42;97827.44;6300606;22;20147;-58
2022/04/26 14:11:35;;;;;;;6.20;2.28;;;;;;;21.94;65.16;97824.56;6292471;22;20352;-57
2022/04/26 14:22:12;;;;;;;5.35;2.45;;;;;;;22.17;66.09;97812.81;6300197;22;20138;-58
2022/04/26 14:24:38;;;;;;;7.55;2.35;;;;;;;21.63;69.45;97809.06;6299897;22;20147;-57
2022/04/26 14:27:04;;;;;;;4.80;1.73;;;;;;;21.45;68.37;97816.59;6300041;22;20143;-58
2022/04/26 14:29:30;;;;;;;3.38;2.08;;;;;;;21.24;73.48;97813.94;6300208;22;20153;-58
2022/04/26 14:31:55;;;;;;;6.22;2.67;;;;;;;21.02;75.38;97803.56;6296279;22;20237;-57
2022/04/26 14:34:22;;;;;;;4.18;2.58;;;;;;;20.76;75.36;97805.84;6259007;22;20863;-57
2022/04/26 14:36:48;;;;;;;8.25;2.38;;;;;;;20.79;74.58;97811.53;6288582;22;20150;-57
2022/04/26 14:39:15;;;;;;;3.65;2.30;;;;;;;20.59;75.24;97818.38;6297775;22;20548;-57
2022/04/26 14:41:41;;;;;;;2.83;2.55;;;;;;;20.55;74.86;97826.78;6299944;22;20221;-57
2022/04/26 14:44:07;;;;;;;5.63;2.17;;;;;;;20.79;73.39;97826.50;6299896;22;20151;-57
2022/04/26 14:46:33;;;;;;;8.73;2.20;;;;;;;21.08;66.66;97834.38;6299947;22;20170;-57
2022/04/26 14:48:59;;;;;;;2.92;2.42;;;;;;;21.21;69.37;97830.09;6300176;22;20148;-57
2022/04/26 14:51:24;;;;;;;3.65;2.35;;;;;;;21.24;71.90;97831.53;6299974;22;20983;-57
2022/04/26 14:53:50;;;;;;;7.13;2.80;;;;;;;21.42;70.88;97831.94;6290704;22;20151;-57
2022/04/26 14:56:15;;;;;;;6.30;3.03;;;;;;;21.35;72.85;97837.16;6287353;22;20274;-57
2022/04/26 14:58:41;;;;;;;7.43;3.90;;;;;;;21.37;72.95;97839.56;6291031;22;20593;-57
2022/04/26 15:01:07;;;;;;;5.97;2.42;;;;;;;21.34;73.37;97847.84;6299846;22;20291;-57
2022/04/26 15:03:32;;;;;;;9.35;2.63;;;;;;;21.25;73.72;97844.53;6299939;22;20150;-57
2022/04/26 15:05:59;;;;;;;6.20;2.47;;;;;;;21.14;74.36;97845.00;6300569;22;20258;-58
2022/04/26 15:11:10;;;;;;;4.25;2.60;;;;;;;20.90;75.17;97863.72;6299784;22;20138;-57
2022/04/26 15:16:38;;;;;;;5.75;2.50;;;;;;;20.88;74.06;97883.28;6285977;22;20726;-57
2022/04/26 15:19:11;;;;;;;2.88;2.17;;;;;;;20.79;75.67;97889.59;6288643;22;20534;-57
2022/04/26 15:21:38;;;;;;;2.55;2.25;;;;;;;20.83;71.72;97894.34;6298962;22;20216;-56
2022/04/26 15:24:04;;;;;;;6.68;2.53;;;;;;;20.86;72.38;97898.44;6300217;22;20155;-56
2022/04/26 15:26:30;;;;;;;6.07;2.42;;;;;;;20.96;72.82;97906.88;6299737;22;20151;-57
2022/04/26 15:28:56;;;;;;;6.10;2.90;;;;;;;20.89;75.31;97903.34;6299800;22;20211;-56
2022/04/26 15:31:22;;;;;;;6.03;2.55;;;;;;;21.09;71.55;97902.59;6299782;22;20170;-57
2022/04/26 15:33:49;;;;;;;6.50;3.13;;;;;;;21.21;71.04;97895.88;6299471;22;20155;-56
2022/04/26 15:36:17;;;;;;;6.50;2.65;;;;;;;21.23;75.55;97895.69;6290608;22;20244;-57
2022/04/26 15:38:43;;;;;;;10.95;3.95;;;;;;;21.06;76.96;97899.53;6288965;22;20155;-57
2022/04/26 15:41:09;;;;;;;9.55;3.40;;;;;;;21.22;79.99;97899.34;6266742;22;20183;-57
2022/04/26 15:43:36;;;;;;;7.10;3.70;;;;;;;21.10;81.12;97900.81;6301619;22;20496;-57
2022/04/26 15:46:08;;;;;;;8.40;3.70;;;;;;;21.01;80.79;97897.47;6301710;22;20261;-57